sensor_id;sensor_type;location;lat;lon;timestamp;temperature;humidity
34829;DHT22;21042;47.620;12.188;2023-05-07T00:02:07;12.40;99.90
34829;DHT22;21042;47.620;12.188;2023-05-07T00:04:34;12.40;99.90
34829;DHT22;21042;47.620;12.188;2023-05-07T00:07:04;12.40;99.90
34829;DHT22;21042;47.620;12.188;2023-05-07T00:09:30;12.30;99.90
34829;DHT22;21042;47.620;12.188;2023-05-07T00:11:57;12.20;99.90
34829;DHT22;21042;47.620;12.188;2023-05-07T00:14:24;12.20;99.90
34829;DHT22;21042;47.620;12.188;2023-05-07T00:16:51;12.20;99.90
34829;DHT22;21042;47.620;12.188;2023-05-07T00:19:17;12.20;99.90
34829;DHT22;21042;47.620;12.188;2023-05-07T00:21:44;12.20;99.90
34829;DHT22;21042;47.620;12.188;2023-05-07T00:24:11;12.20;99.90
34829;DHT22;21042;47.620;12.188;2023-05-07T00:26:38;12.20;99.90
34829;DHT22;21042;47.620;12.188;2023-05-07T00:29:04;12.20;99.90
34829;DHT22;21042;47.620;12.188;2023-05-07T00:31:31;12.10;99.90
34829;DHT22;21042;47.620;12.188;2023-05-07T00:33:58;12.10;99.90
34829;DHT22;21042;47.620;12.188;2023-05-07T00:36:25;12.20;99.90
34829;DHT22;21042;47.620;12.188;2023-05-07T00:38:54;12.10;99.90
34829;DHT22;21042;47.620;12.188;2023-05-07T00:41:21;12.10;99.90
34829;DHT22;21042;47.620;12.188;2023-05-07T00:43:49;12.10;99.90
34829;DHT22;21042;47.620;12.188;2023-05-07T00:46:20;12.10;99.90
34829;DHT22;21042;47.620;12.188;2023-05-07T00:48:48;12.10;99.90
34829;DHT22;21042;47.620;12.188;2023-05-07T00:51:15;12.10;99.90
34829;DHT22;21042;47.620;12.188;2023-05-07T00:53:42;12.00;99.90
34829;DHT22;21042;47.620;12.188;2023-05-07T00:56:09;12.00;99.90
34829;DHT22;21042;47.620;12.188;2023-05-07T00:58:36;12.00;99.90
34829;DHT22;21042;47.620;12.188;2023-05-07T01:01:03;11.90;99.90
34829;DHT22;21042;47.620;12.188;2023-05-07T01:03:30;11.90;99.90
34829;DHT22;21042;47.620;12.188;2023-05-07T01:05:58;11.80;99.90
34829;DHT22;21042;47.620;12.188;2023-05-07T01:08:26;11.80;99.90
34829;DHT22;21042;47.620;12.188;2023-05-07T01:10:56;11.80;99.90
34829;DHT22;21042;47.620;12.188;2023-05-07T01:13:24;11.80;99.90
34829;DHT22;21042;47.620;12.188;2023-05-07T01:15:52;11.70;99.90
34829;DHT22;21042;47.620;12.188;2023-05-07T01:18:18;11.70;99.90
34829;DHT22;21042;47.620;12.188;2023-05-07T01:20:45;11.80;99.90
34829;DHT22;21042;47.620;12.188;2023-05-07T01:23:12;11.60;99.90
34829;DHT22;21042;47.620;12.188;2023-05-07T01:25:39;11.50;99.90
34829;DHT22;21042;47.620;12.188;2023-05-07T01:28:07;11.50;99.90
34829;DHT22;21042;47.620;12.188;2023-05-07T01:30:38;11.50;99.90
34829;DHT22;21042;47.620;12.188;2023-05-07T01:33:13;11.50;99.90
34829;DHT22;21042;47.620;12.188;2023-05-07T01:35:45;11.50;99.90
34829;DHT22;21042;47.620;12.188;2023-05-07T01:38:12;11.60;99.90
34829;DHT22;21042;47.620;12.188;2023-05-07T01:40:39;11.60;99.90
34829;DHT22;21042;47.620;12.188;2023-05-07T01:43:06;11.60;99.90
34829;DHT22;21042;47.620;12.188;2023-05-07T01:45:35;11.50;99.90
34829;DHT22;21042;47.620;12.188;2023-05-07T01:48:02;11.50;99.90
34829;DHT22;21042;47.620;12.188;2023-05-07T01:50:30;11.50;99.90
34829;DHT22;21042;47.620;12.188;2023-05-07T01:52:58;11.50;99.90
34829;DHT22;21042;47.620;12.188;2023-05-07T01:55:24;11.50;99.90
34829;DHT22;21042;47.620;12.188;2023-05-07T01:57:51;11.50;99.90
34829;DHT22;21042;47.620;12.188;2023-05-07T02:00:18;11.50;99.90
34829;DHT22;21042;47.620;12.188;2023-05-07T02:02:45;11.40;99.90
34829;DHT22;21042;47.620;12.188;2023-05-07T02:05:24;11.40;99.90
34829;DHT22;21042;47.620;12.188;2023-05-07T02:07:58;11.40;99.90
34829;DHT22;21042;47.620;12.188;2023-05-07T02:10:27;11.50;99.90
34829;DHT22;21042;47.620;12.188;2023-05-07T02:12:53;11.40;99.90
34829;DHT22;21042;47.620;12.188;2023-05-07T02:15:20;11.50;99.90
34829;DHT22;21042;47.620;12.188;2023-05-07T02:18:08;11.50;99.90
34829;DHT22;21042;47.620;12.188;2023-05-07T02:20:35;11.50;99.90
34829;DHT22;21042;47.620;12.188;2023-05-07T02:23:02;11.50;99.90
34829;DHT22;21042;47.620;12.188;2023-05-07T02:25:29;11.50;99.90
34829;DHT22;21042;47.620;12.188;2023-05-07T02:27:57;11.40;99.90
34829;DHT22;21042;47.620;12.188;2023-05-07T02:30:36;11.40;99.90
34829;DHT22;21042;47.620;12.188;2023-05-07T02:33:03;11.30;99.90
34829;DHT22;21042;47.620;12.188;2023-05-07T02:35:30;11.40;99.90
34829;DHT22;21042;47.620;12.188;2023-05-07T02:37:57;11.30;99.90
34829;DHT22;21042;47.620;12.188;2023-05-07T02:40:25;11.30;99.90
34829;DHT22;21042;47.620;12.188;2023-05-07T02:42:51;11.30;99.90
34829;DHT22;21042;47.620;12.188;2023-05-07T02:45:18;11.30;99.90
34829;DHT22;21042;47.620;12.188;2023-05-07T02:47:46;11.30;99.90
34829;DHT22;21042;47.620;12.188;2023-05-07T02:50:13;11.30;99.90
34829;DHT22;21042;47.620;12.188;2023-05-07T02:52:40;11.30;99.90
34829;DHT22;21042;47.620;12.188;2023-05-07T02:55:07;11.30;99.90
34829;DHT22;21042;47.620;12.188;2023-05-07T02:57:34;11.30;99.90
34829;DHT22;21042;47.620;12.188;2023-05-07T03:00:13;11.30;99.90
34829;DHT22;21042;47.620;12.188;2023-05-07T03:02:46;11.30;99.90
34829;DHT22;21042;47.620;12.188;2023-05-07T03:05:13;11.30;99.90
34829;DHT22;21042;47.620;12.188;2023-05-07T03:07:41;11.30;99.90
34829;DHT22;21042;47.620;12.188;2023-05-07T03:10:12;11.30;99.90
34829;DHT22;21042;47.620;12.188;2023-05-07T03:12:39;11.30;99.90
34829;DHT22;21042;47.620;12.188;2023-05-07T03:15:06;11.20;99.90
34829;DHT22;21042;47.620;12.188;2023-05-07T03:17:33;11.20;99.90
34829;DHT22;21042;47.620;12.188;2023-05-07T03:20:00;11.20;99.90
34829;DHT22;21042;47.620;12.188;2023-05-07T03:22:29;11.20;99.90
34829;DHT22;21042;47.620;12.188;2023-05-07T03:24:55;11.10;99.90
34829;DHT22;21042;47.620;12.188;2023-05-07T03:27:22;11.20;99.90
34829;DHT22;21042;47.620;12.188;2023-05-07T03:29:51;11.20;99.90
34829;DHT22;21042;47.620;12.188;2023-05-07T03:32:19;11.20;99.90
34829;DHT22;21042;47.620;12.188;2023-05-07T03:34:47;11.20;99.90
34829;DHT22;21042;47.620;12.188;2023-05-07T03:37:14;11.10;99.90
34829;DHT22;21042;47.620;12.188;2023-05-07T03:39:41;11.10;99.90
34829;DHT22;21042;47.620;12.188;2023-05-07T03:42:09;11.10;99.90
34829;DHT22;21042;47.620;12.188;2023-05-07T03:44:36;11.10;99.90
34829;DHT22;21042;47.620;12.188;2023-05-07T03:47:03;11.10;99.90
34829;DHT22;21042;47.620;12.188;2023-05-07T03:49:30;11.10;99.90
34829;DHT22;21042;47.620;12.188;2023-05-07T03:51:57;11.10;99.90
34829;DHT22;21042;47.620;12.188;2023-05-07T03:54:24;11.10;99.90
34829;DHT22;21042;47.620;12.188;2023-05-07T03:56:51;11.10;99.90
34829;DHT22;21042;47.620;12.188;2023-05-07T03:59:18;11.10;99.90
34829;DHT22;21042;47.620;12.188;2023-05-07T04:01:46;11.10;99.90
34829;DHT22;21042;47.620;12.188;2023-05-07T04:04:16;11.00;99.90
34829;DHT22;21042;47.620;12.188;2023-05-07T04:06:43;11.00;99.90
34829;DHT22;21042;47.620;12.188;2023-05-07T04:09:10;11.00;99.90
34829;DHT22;21042;47.620;12.188;2023-05-07T04:11:37;11.10;99.90
34829;DHT22;21042;47.620;12.188;2023-05-07T04:14:08;11.10;99.90
34829;DHT22;21042;47.620;12.188;2023-05-07T04:16:36;11.10;99.90
34829;DHT22;21042;47.620;12.188;2023-05-07T04:19:03;11.00;99.90
34829;DHT22;21042;47.620;12.188;2023-05-07T04:21:31;11.10;99.90
34829;DHT22;21042;47.620;12.188;2023-05-07T04:23:58;11.10;99.90
34829;DHT22;21042;47.620;12.188;2023-05-07T04:26:25;11.10;99.90
34829;DHT22;21042;47.620;12.188;2023-05-07T04:28:51;11.20;99.90
34829;DHT22;21042;47.620;12.188;2023-05-07T04:31:18;11.20;99.90
34829;DHT22;21042;47.620;12.188;2023-05-07T04:33:49;11.10;99.90
34829;DHT22;21042;47.620;12.188;2023-05-07T04:36:17;11.10;99.90
34829;DHT22;21042;47.620;12.188;2023-05-07T04:38:56;11.20;99.90
34829;DHT22;21042;47.620;12.188;2023-05-07T04:41:23;11.10;99.90
34829;DHT22;21042;47.620;12.188;2023-05-07T04:43:50;11.10;99.90
34829;DHT22;21042;47.620;12.188;2023-05-07T04:46:20;11.20;99.90
34829;DHT22;21042;47.620;12.188;2023-05-07T04:48:48;11.30;99.90
34829;DHT22;21042;47.620;12.188;2023-05-07T04:51:15;11.30;99.90
34829;DHT22;21042;47.620;12.188;2023-05-07T04:53:42;11.40;99.90
34829;DHT22;21042;47.620;12.188;2023-05-07T04:56:10;11.60;99.90
34829;DHT22;21042;47.620;12.188;2023-05-07T04:58:40;11.60;99.90
34829;DHT22;21042;47.620;12.188;2023-05-07T05:01:08;11.60;99.90
34829;DHT22;21042;47.620;12.188;2023-05-07T05:03:36;11.60;99.90
34829;DHT22;21042;47.620;12.188;2023-05-07T05:06:03;11.70;99.90
34829;DHT22;21042;47.620;12.188;2023-05-07T05:08:33;11.80;99.90
34829;DHT22;21042;47.620;12.188;2023-05-07T05:11:02;11.80;99.90
34829;DHT22;21042;47.620;12.188;2023-05-07T05:13:30;11.80;99.90
34829;DHT22;21042;47.620;12.188;2023-05-07T05:15:57;11.90;99.90
34829;DHT22;21042;47.620;12.188;2023-05-07T05:18:26;11.90;99.90
34829;DHT22;21042;47.620;12.188;2023-05-07T05:20:53;12.00;99.90
34829;DHT22;21042;47.620;12.188;2023-05-07T05:23:20;12.00;99.90
34829;DHT22;21042;47.620;12.188;2023-05-07T05:25:47;12.00;99.90
34829;DHT22;21042;47.620;12.188;2023-05-07T05:28:14;12.10;99.90
34829;DHT22;21042;47.620;12.188;2023-05-07T05:30:41;12.20;99.90
34829;DHT22;21042;47.620;12.188;2023-05-07T05:33:08;12.20;99.90
34829;DHT22;21042;47.620;12.188;2023-05-07T05:35:35;12.30;99.90
34829;DHT22;21042;47.620;12.188;2023-05-07T05:38:04;12.30;99.90
34829;DHT22;21042;47.620;12.188;2023-05-07T05:40:32;12.40;99.90
34829;DHT22;21042;47.620;12.188;2023-05-07T05:43:00;12.50;99.90
34829;DHT22;21042;47.620;12.188;2023-05-07T05:45:27;12.50;99.90
34829;DHT22;21042;47.620;12.188;2023-05-07T05:47:56;12.60;99.90
34829;DHT22;21042;47.620;12.188;2023-05-07T05:50:23;12.60;99.90
34829;DHT22;21042;47.620;12.188;2023-05-07T05:52:51;12.60;99.90
34829;DHT22;21042;47.620;12.188;2023-05-07T05:55:19;12.70;99.90
34829;DHT22;21042;47.620;12.188;2023-05-07T05:57:46;12.70;99.90
34829;DHT22;21042;47.620;12.188;2023-05-07T06:00:15;12.80;99.90
34829;DHT22;21042;47.620;12.188;2023-05-07T06:02:45;12.90;99.90
34829;DHT22;21042;47.620;12.188;2023-05-07T06:05:18;13.00;99.90
34829;DHT22;21042;47.620;12.188;2023-05-07T06:07:47;13.00;99.90
34829;DHT22;21042;47.620;12.188;2023-05-07T06:10:14;13.70;99.90
34829;DHT22;21042;47.620;12.188;2023-05-07T06:12:41;13.20;99.90
34829;DHT22;21042;47.620;12.188;2023-05-07T06:15:08;13.10;99.90
34829;DHT22;21042;47.620;12.188;2023-05-07T06:17:36;13.00;99.90
34829;DHT22;21042;47.620;12.188;2023-05-07T06:20:03;13.10;99.90
34829;DHT22;21042;47.620;12.188;2023-05-07T06:22:30;13.20;99.90
34829;DHT22;21042;47.620;12.188;2023-05-07T06:24:56;13.40;99.90
34829;DHT22;21042;47.620;12.188;2023-05-07T06:27:24;13.50;99.90
34829;DHT22;21042;47.620;12.188;2023-05-07T06:29:51;13.60;99.90
34829;DHT22;21042;47.620;12.188;2023-05-07T06:32:18;13.70;99.90
34829;DHT22;21042;47.620;12.188;2023-05-07T06:34:45;13.70;99.90
34829;DHT22;21042;47.620;12.188;2023-05-07T06:37:14;13.90;99.90
34829;DHT22;21042;47.620;12.188;2023-05-07T06:40:07;14.00;99.90
34829;DHT22;21042;47.620;12.188;2023-05-07T06:42:37;14.10;99.90
34829;DHT22;21042;47.620;12.188;2023-05-07T06:45:22;14.30;99.90
34829;DHT22;21042;47.620;12.188;2023-05-07T06:47:51;14.50;99.90
34829;DHT22;21042;47.620;12.188;2023-05-07T06:50:18;14.60;99.90
34829;DHT22;21042;47.620;12.188;2023-05-07T06:52:45;14.80;99.90
34829;DHT22;21042;47.620;12.188;2023-05-07T06:55:11;14.90;99.90
34829;DHT22;21042;47.620;12.188;2023-05-07T06:57:38;15.00;99.90
34829;DHT22;21042;47.620;12.188;2023-05-07T07:00:06;15.20;99.90
34829;DHT22;21042;47.620;12.188;2023-05-07T07:02:44;15.20;99.90
34829;DHT22;21042;47.620;12.188;2023-05-07T07:05:12;15.20;99.90
34829;DHT22;21042;47.620;12.188;2023-05-07T07:07:39;15.30;99.90
34829;DHT22;21042;47.620;12.188;2023-05-07T07:10:07;15.40;99.90
34829;DHT22;21042;47.620;12.188;2023-05-07T07:12:34;15.50;99.90
34829;DHT22;21042;47.620;12.188;2023-05-07T07:15:02;15.60;99.90
34829;DHT22;21042;47.620;12.188;2023-05-07T07:17:29;15.70;99.90
34829;DHT22;21042;47.620;12.188;2023-05-07T07:19:56;15.70;99.90
34829;DHT22;21042;47.620;12.188;2023-05-07T07:22:22;15.70;99.90
34829;DHT22;21042;47.620;12.188;2023-05-07T07:24:49;15.90;99.90
34829;DHT22;21042;47.620;12.188;2023-05-07T07:27:17;16.00;99.90
34829;DHT22;21042;47.620;12.188;2023-05-07T07:29:44;16.00;99.90
34829;DHT22;21042;47.620;12.188;2023-05-07T07:32:11;16.10;99.90
34829;DHT22;21042;47.620;12.188;2023-05-07T07:34:39;16.00;99.90
34829;DHT22;21042;47.620;12.188;2023-05-07T07:37:06;16.10;99.90
34829;DHT22;21042;47.620;12.188;2023-05-07T07:39:35;16.20;99.90
34829;DHT22;21042;47.620;12.188;2023-05-07T07:42:05;16.40;99.90
34829;DHT22;21042;47.620;12.188;2023-05-07T07:44:32;16.70;99.90
34829;DHT22;21042;47.620;12.188;2023-05-07T07:47:04;16.90;99.90
34829;DHT22;21042;47.620;12.188;2023-05-07T07:49:32;17.10;99.90
34829;DHT22;21042;47.620;12.188;2023-05-07T07:52:02;17.10;99.90
34829;DHT22;21042;47.620;12.188;2023-05-07T07:54:31;17.10;99.90
34829;DHT22;21042;47.620;12.188;2023-05-07T07:56:58;17.30;99.90
34829;DHT22;21042;47.620;12.188;2023-05-07T07:59:25;17.40;99.90
34829;DHT22;21042;47.620;12.188;2023-05-07T08:01:53;17.40;99.90
34829;DHT22;21042;47.620;12.188;2023-05-07T08:04:23;17.50;99.90
34829;DHT22;21042;47.620;12.188;2023-05-07T08:06:51;17.60;99.90
34829;DHT22;21042;47.620;12.188;2023-05-07T08:09:18;17.80;99.90
34829;DHT22;21042;47.620;12.188;2023-05-07T08:11:46;18.10;99.90
34829;DHT22;21042;47.620;12.188;2023-05-07T08:14:13;18.10;99.90
34829;DHT22;21042;47.620;12.188;2023-05-07T08:16:45;18.10;99.90
34829;DHT22;21042;47.620;12.188;2023-05-07T08:19:12;18.30;99.90
34829;DHT22;21042;47.620;12.188;2023-05-07T08:21:39;18.40;99.90
34829;DHT22;21042;47.620;12.188;2023-05-07T08:24:08;18.50;99.90
34829;DHT22;21042;47.620;12.188;2023-05-07T08:26:35;18.60;99.90
34829;DHT22;21042;47.620;12.188;2023-05-07T08:29:02;18.60;99.90
34829;DHT22;21042;47.620;12.188;2023-05-07T08:31:29;18.80;99.90
34829;DHT22;21042;47.620;12.188;2023-05-07T08:33:57;19.00;99.90
34829;DHT22;21042;47.620;12.188;2023-05-07T08:36:24;19.20;99.90
34829;DHT22;21042;47.620;12.188;2023-05-07T08:38:52;19.40;99.90
34829;DHT22;21042;47.620;12.188;2023-05-07T08:41:20;19.60;99.90
34829;DHT22;21042;47.620;12.188;2023-05-07T08:43:49;19.70;99.90
34829;DHT22;21042;47.620;12.188;2023-05-07T08:46:21;19.90;99.90
34829;DHT22;21042;47.620;12.188;2023-05-07T08:48:52;19.90;99.90
34829;DHT22;21042;47.620;12.188;2023-05-07T08:51:20;20.00;99.90
34829;DHT22;21042;47.620;12.188;2023-05-07T08:53:48;19.90;99.90
34829;DHT22;21042;47.620;12.188;2023-05-07T08:56:22;19.90;99.90
34829;DHT22;21042;47.620;12.188;2023-05-07T08:58:51;20.10;99.90
34829;DHT22;21042;47.620;12.188;2023-05-07T09:01:18;20.30;99.90
34829;DHT22;21042;47.620;12.188;2023-05-07T09:03:51;20.60;99.90
34829;DHT22;21042;47.620;12.188;2023-05-07T09:06:18;20.80;99.90
34829;DHT22;21042;47.620;12.188;2023-05-07T09:08:53;21.00;99.90
34829;DHT22;21042;47.620;12.188;2023-05-07T09:11:23;20.90;99.90
34829;DHT22;21042;47.620;12.188;2023-05-07T09:13:54;21.00;99.90
34829;DHT22;21042;47.620;12.188;2023-05-07T09:16:24;21.10;99.90
34829;DHT22;21042;47.620;12.188;2023-05-07T09:18:53;21.20;99.90
34829;DHT22;21042;47.620;12.188;2023-05-07T09:21:22;21.40;99.90
34829;DHT22;21042;47.620;12.188;2023-05-07T09:23:53;21.60;99.90
34829;DHT22;21042;47.620;12.188;2023-05-07T09:26:24;21.70;99.90
34829;DHT22;21042;47.620;12.188;2023-05-07T09:28:51;21.70;99.90
34829;DHT22;21042;47.620;12.188;2023-05-07T09:31:19;21.60;99.90
34829;DHT22;21042;47.620;12.188;2023-05-07T09:33:48;21.70;99.90
34829;DHT22;21042;47.620;12.188;2023-05-07T09:36:16;21.60;99.90
34829;DHT22;21042;47.620;12.188;2023-05-07T09:38:43;21.60;99.90
34829;DHT22;21042;47.620;12.188;2023-05-07T09:41:12;21.60;99.90
34829;DHT22;21042;47.620;12.188;2023-05-07T09:43:53;21.70;99.90
34829;DHT22;21042;47.620;12.188;2023-05-07T09:46:30;21.80;99.90
34829;DHT22;21042;47.620;12.188;2023-05-07T09:49:02;21.90;99.90
34829;DHT22;21042;47.620;12.188;2023-05-07T09:51:39;22.00;99.90
34829;DHT22;21042;47.620;12.188;2023-05-07T09:54:06;22.10;99.90
34829;DHT22;21042;47.620;12.188;2023-05-07T09:56:38;22.10;99.90
34829;DHT22;21042;47.620;12.188;2023-05-07T09:59:13;22.30;99.90
34829;DHT22;21042;47.620;12.188;2023-05-07T10:01:41;22.50;99.90
34829;DHT22;21042;47.620;12.188;2023-05-07T10:04:10;22.50;99.90
34829;DHT22;21042;47.620;12.188;2023-05-07T10:06:38;22.30;99.90
34829;DHT22;21042;47.620;12.188;2023-05-07T10:09:05;22.20;99.90
34829;DHT22;21042;47.620;12.188;2023-05-07T10:11:36;22.00;99.90
34829;DHT22;21042;47.620;12.188;2023-05-07T10:14:04;21.90;99.90
34829;DHT22;21042;47.620;12.188;2023-05-07T10:16:36;21.70;99.90
34829;DHT22;21042;47.620;12.188;2023-05-07T10:19:08;21.50;99.90
34829;DHT22;21042;47.620;12.188;2023-05-07T10:21:51;21.40;99.90
34829;DHT22;21042;47.620;12.188;2023-05-07T10:24:26;21.20;99.90
34829;DHT22;21042;47.620;12.188;2023-05-07T10:26:54;21.10;99.90
34829;DHT22;21042;47.620;12.188;2023-05-07T10:29:43;21.00;99.90
34829;DHT22;21042;47.620;12.188;2023-05-07T10:35:02;20.80;99.90
34829;DHT22;21042;47.620;12.188;2023-05-07T10:37:30;20.60;99.90
34829;DHT22;21042;47.620;12.188;2023-05-07T10:39:57;20.60;99.90
34829;DHT22;21042;47.620;12.188;2023-05-07T10:42:26;20.60;99.90
34829;DHT22;21042;47.620;12.188;2023-05-07T10:44:54;20.50;99.90
34829;DHT22;21042;47.620;12.188;2023-05-07T10:47:25;20.40;99.90
34829;DHT22;21042;47.620;12.188;2023-05-07T10:52:37;20.40;99.90
34829;DHT22;21042;47.620;12.188;2023-05-07T10:57:50;20.40;99.90
34829;DHT22;21042;47.620;12.188;2023-05-07T11:00:41;20.40;99.90
34829;DHT22;21042;47.620;12.188;2023-05-07T11:03:13;20.50;99.90
34829;DHT22;21042;47.620;12.188;2023-05-07T11:08:58;20.00;99.90
34829;DHT22;21042;47.620;12.188;2023-05-07T11:11:48;19.80;99.90
34829;DHT22;21042;47.620;12.188;2023-05-07T11:17:16;19.40;99.90
34829;DHT22;21042;47.620;12.188;2023-05-07T11:19:54;19.10;99.90
34829;DHT22;21042;47.620;12.188;2023-05-07T11:22:47;18.70;99.90
34829;DHT22;21042;47.620;12.188;2023-05-07T11:25:18;18.80;99.90
34829;DHT22;21042;47.620;12.188;2023-05-07T11:28:06;18.80;99.90
34829;DHT22;21042;47.620;12.188;2023-05-07T11:30:42;18.70;99.90
34829;DHT22;21042;47.620;12.188;2023-05-07T11:33:11;18.60;99.90
34829;DHT22;21042;47.620;12.188;2023-05-07T11:35:42;18.80;99.90
34829;DHT22;21042;47.620;12.188;2023-05-07T11:38:12;18.60;99.90
34829;DHT22;21042;47.620;12.188;2023-05-07T11:40:51;18.70;99.90
34829;DHT22;21042;47.620;12.188;2023-05-07T11:43:18;18.60;99.90
34829;DHT22;21042;47.620;12.188;2023-05-07T11:45:46;18.40;99.90
34829;DHT22;21042;47.620;12.188;2023-05-07T11:48:13;18.30;99.90
34829;DHT22;21042;47.620;12.188;2023-05-07T11:51:05;18.20;99.90
34829;DHT22;21042;47.620;12.188;2023-05-07T11:53:37;18.00;99.90
34829;DHT22;21042;47.620;12.188;2023-05-07T11:56:08;17.80;99.90
34829;DHT22;21042;47.620;12.188;2023-05-07T11:58:35;17.80;99.90
34829;DHT22;21042;47.620;12.188;2023-05-07T12:01:02;17.70;99.90
34829;DHT22;21042;47.620;12.188;2023-05-07T12:03:29;17.60;99.90
34829;DHT22;21042;47.620;12.188;2023-05-07T12:06:01;17.70;99.90
34829;DHT22;21042;47.620;12.188;2023-05-07T12:08:28;17.60;99.90
34829;DHT22;21042;47.620;12.188;2023-05-07T12:10:55;17.60;99.90
34829;DHT22;21042;47.620;12.188;2023-05-07T12:13:25;17.50;99.90
34829;DHT22;21042;47.620;12.188;2023-05-07T12:15:56;17.60;99.90
34829;DHT22;21042;47.620;12.188;2023-05-07T12:18:23;17.50;99.90
34829;DHT22;21042;47.620;12.188;2023-05-07T12:20:50;17.50;99.90
34829;DHT22;21042;47.620;12.188;2023-05-07T12:23:17;17.30;99.90
34829;DHT22;21042;47.620;12.188;2023-05-07T12:25:44;17.50;99.90
34829;DHT22;21042;47.620;12.188;2023-05-07T12:28:15;17.70;99.90
34829;DHT22;21042;47.620;12.188;2023-05-07T12:30:44;18.00;99.90
34829;DHT22;21042;47.620;12.188;2023-05-07T12:33:11;18.20;99.90
34829;DHT22;21042;47.620;12.188;2023-05-07T12:35:40;18.30;99.90
34829;DHT22;21042;47.620;12.188;2023-05-07T12:38:12;17.90;99.90
34829;DHT22;21042;47.620;12.188;2023-05-07T12:40:41;17.90;99.90
34829;DHT22;21042;47.620;12.188;2023-05-07T12:43:24;17.70;99.90
34829;DHT22;21042;47.620;12.188;2023-05-07T12:45:54;17.90;99.90
34829;DHT22;21042;47.620;12.188;2023-05-07T12:48:22;17.80;99.90
34829;DHT22;21042;47.620;12.188;2023-05-07T12:50:50;17.80;99.90
34829;DHT22;21042;47.620;12.188;2023-05-07T12:53:20;17.90;99.90
34829;DHT22;21042;47.620;12.188;2023-05-07T12:55:49;17.80;99.90
34829;DHT22;21042;47.620;12.188;2023-05-07T13:00:48;17.80;99.90
34829;DHT22;21042;47.620;12.188;2023-05-07T13:03:29;18.10;99.90
34829;DHT22;21042;47.620;12.188;2023-05-07T13:05:59;18.20;99.90
34829;DHT22;21042;47.620;12.188;2023-05-07T13:08:31;18.40;99.90
34829;DHT22;21042;47.620;12.188;2023-05-07T13:11:00;18.70;99.90
34829;DHT22;21042;47.620;12.188;2023-05-07T13:13:31;18.90;99.90
34829;DHT22;21042;47.620;12.188;2023-05-07T13:15:58;18.90;99.90
34829;DHT22;21042;47.620;12.188;2023-05-07T13:18:26;18.90;99.90
34829;DHT22;21042;47.620;12.188;2023-05-07T13:20:53;19.10;99.90
34829;DHT22;21042;47.620;12.188;2023-05-07T13:23:20;18.80;99.90
34829;DHT22;21042;47.620;12.188;2023-05-07T13:25:48;18.80;99.90
34829;DHT22;21042;47.620;12.188;2023-05-07T13:28:16;18.80;99.90
34829;DHT22;21042;47.620;12.188;2023-05-07T13:30:43;18.70;99.90
34829;DHT22;21042;47.620;12.188;2023-05-07T13:33:10;18.90;99.90
34829;DHT22;21042;47.620;12.188;2023-05-07T13:35:36;18.80;99.90
34829;DHT22;21042;47.620;12.188;2023-05-07T13:38:04;18.90;99.90
34829;DHT22;21042;47.620;12.188;2023-05-07T13:40:31;19.30;99.90
34829;DHT22;21042;47.620;12.188;2023-05-07T13:43:00;19.00;99.90
34829;DHT22;21042;47.620;12.188;2023-05-07T13:45:29;18.90;99.90
34829;DHT22;21042;47.620;12.188;2023-05-07T13:47:56;19.00;99.90
34829;DHT22;21042;47.620;12.188;2023-05-07T13:50:24;18.90;99.90
34829;DHT22;21042;47.620;12.188;2023-05-07T13:52:53;18.70;99.90
34829;DHT22;21042;47.620;12.188;2023-05-07T13:55:23;18.70;99.90
34829;DHT22;21042;47.620;12.188;2023-05-07T13:57:58;18.70;99.90
34829;DHT22;21042;47.620;12.188;2023-05-07T14:00:26;18.70;99.90
34829;DHT22;21042;47.620;12.188;2023-05-07T14:02:54;18.60;99.90
34829;DHT22;21042;47.620;12.188;2023-05-07T14:05:22;18.60;99.90
34829;DHT22;21042;47.620;12.188;2023-05-07T14:07:52;18.40;99.90
34829;DHT22;21042;47.620;12.188;2023-05-07T14:10:19;18.40;99.90
34829;DHT22;21042;47.620;12.188;2023-05-07T14:12:46;18.40;99.90
34829;DHT22;21042;47.620;12.188;2023-05-07T14:15:14;18.40;99.90
34829;DHT22;21042;47.620;12.188;2023-05-07T14:17:41;18.30;99.90
34829;DHT22;21042;47.620;12.188;2023-05-07T14:20:08;18.40;99.90
34829;DHT22;21042;47.620;12.188;2023-05-07T14:22:37;18.50;99.90
34829;DHT22;21042;47.620;12.188;2023-05-07T14:25:04;18.50;99.90
34829;DHT22;21042;47.620;12.188;2023-05-07T14:27:33;18.60;99.90
34829;DHT22;21042;47.620;12.188;2023-05-07T14:29:59;18.60;99.90
34829;DHT22;21042;47.620;12.188;2023-05-07T14:32:26;18.50;99.90
34829;DHT22;21042;47.620;12.188;2023-05-07T14:34:53;18.50;99.90
34829;DHT22;21042;47.620;12.188;2023-05-07T14:37:20;18.50;99.90
34829;DHT22;21042;47.620;12.188;2023-05-07T14:39:46;18.30;99.90
34829;DHT22;21042;47.620;12.188;2023-05-07T14:42:16;18.10;99.90
34829;DHT22;21042;47.620;12.188;2023-05-07T14:44:44;18.10;99.90
34829;DHT22;21042;47.620;12.188;2023-05-07T14:47:12;18.00;99.90
34829;DHT22;21042;47.620;12.188;2023-05-07T14:49:39;17.80;99.90
34829;DHT22;21042;47.620;12.188;2023-05-07T14:52:07;17.90;99.90
34829;DHT22;21042;47.620;12.188;2023-05-07T14:54:38;17.90;99.90
34829;DHT22;21042;47.620;12.188;2023-05-07T14:57:06;18.00;99.90
34829;DHT22;21042;47.620;12.188;2023-05-07T14:59:33;17.90;99.90
34829;DHT22;21042;47.620;12.188;2023-05-07T15:02:00;17.80;99.90
34829;DHT22;21042;47.620;12.188;2023-05-07T15:04:31;17.70;99.90
34829;DHT22;21042;47.620;12.188;2023-05-07T15:06:58;17.70;99.90
34829;DHT22;21042;47.620;12.188;2023-05-07T15:09:25;17.80;99.90
34829;DHT22;21042;47.620;12.188;2023-05-07T15:11:52;17.80;99.90
34829;DHT22;21042;47.620;12.188;2023-05-07T15:14:19;17.90;99.90
34829;DHT22;21042;47.620;12.188;2023-05-07T15:16:48;18.10;99.90
34829;DHT22;21042;47.620;12.188;2023-05-07T15:19:15;18.30;99.90
34829;DHT22;21042;47.620;12.188;2023-05-07T15:21:43;18.10;99.90
34829;DHT22;21042;47.620;12.188;2023-05-07T15:24:10;18.20;99.90
34829;DHT22;21042;47.620;12.188;2023-05-07T15:26:37;18.20;99.90
34829;DHT22;21042;47.620;12.188;2023-05-07T15:29:03;18.40;99.90
34829;DHT22;21042;47.620;12.188;2023-05-07T15:31:34;18.40;99.90
34829;DHT22;21042;47.620;12.188;2023-05-07T15:34:01;18.60;99.90
34829;DHT22;21042;47.620;12.188;2023-05-07T15:36:28;18.60;99.90
34829;DHT22;21042;47.620;12.188;2023-05-07T15:38:54;18.60;99.90
34829;DHT22;21042;47.620;12.188;2023-05-07T15:41:21;18.80;99.90
34829;DHT22;21042;47.620;12.188;2023-05-07T15:43:50;18.90;99.90